< < Back
Terminal Aerodrome Forecast


Current Version              Previous Versions:   1  2  3  4  5  6  7  8  9  

Terminal Aerodrome Forecast

835
FTUS42 KILM 270520
TAFILM
TAF
KILM 270520Z 2706/2806 22006KT P6SM SKC
     FM271400 24010G17KT P6SM FEW050 SCT250
     FM280000 22006KT P6SM SKC=

Latest METAR

245
SAUS70 KWBC 271300 RRI
MTRILM
METAR KILM 271253Z AUTO 25009KT 10SM CLR 29/23 A3000 RMK AO2 SLP159
T02940233 PWINO


USA.gov is the U.S. government's official web portal to all federal, state and local government web resources and services.